Time;durP1;ratioP1;P1;durP2;ratioP2;P2;SDS_P1;SDS_P2;PMS_P1;PMS_P2;Temp;Humidity;BMP_temperature;BMP_pressure;BME280_temperature;BME280_humidity;BME280_pressure;Samples;Min_cycle;Max_cycle;Signal;HPM_P1;HPM_P2
2022/06/28 00:01:03;;;;;;;8.25;2.53;;;;;;;;;;5005125;28;20197;-74
2022/06/28 00:03:29;;;;;;;7.07;2.30;;;;;;;;;;5006898;28;20206;-75
2022/06/28 00:05:54;;;;;;;8.57;2.60;;;;;;;;;;5012645;28;20228;-74
2022/06/28 00:08:19;;;;;;;4.70;2.78;;;;;;;;;;5011198;28;20566;-74
2022/06/28 00:10:44;;;;;;;5.50;2.17;;;;;;;;;;5008854;28;20181;-74
2022/06/28 00:13:09;;;;;;;5.50;2.10;;;;;;;;;;5009903;28;20268;-74
2022/06/28 00:18:19;;;;;;;3.45;2.35;;;;;;;;;;5003628;28;20629;-73
2022/06/28 00:20:44;;;;;;;7.20;2.08;;;;;;;;;;5006751;28;20175;-74
2022/06/28 00:23:09;;;;;;;6.28;2.35;;;;;;;;;;5001267;28;20214;-74
2022/06/28 00:25:34;;;;;;;10.77;2.45;;;;;;;;;;5002499;28;20939;-74
2022/06/28 00:27:59;;;;;;;5.22;2.08;;;;;;;;;;5009203;28;20190;-74
2022/06/28 00:30:25;;;;;;;5.78;2.10;;;;;;;;;;4987204;28;20182;-74
2022/06/28 00:32:50;;;;;;;6.50;2.47;;;;;;;;;;5007875;28;20194;-74
2022/06/28 00:35:15;;;;;;;10.93;2.47;;;;;;;;;;5010827;28;20171;-74
2022/06/28 00:37:40;;;;;;;4.72;2.13;;;;;;;;;;5008061;28;20767;-74
2022/06/28 00:40:06;;;;;;;5.72;2.00;;;;;;;;;;5013034;28;20668;-74
2022/06/28 00:42:31;;;;;;;6.75;2.85;;;;;;;;;;5011231;28;20265;-74
2022/06/28 00:44:58;;;;;;;7.03;2.00;;;;;;;;;;5013843;28;20190;-74
2022/06/28 00:47:24;;;;;;;7.00;2.47;;;;;;;;;;5012439;28;20587;-74
2022/06/28 00:49:49;;;;;;;6.53;2.10;;;;;;;;;;4992144;28;20183;-73
2022/06/28 00:52:14;;;;;;;3.83;1.80;;;;;;;;;;5004070;28;20604;-74
2022/06/28 00:54:40;;;;;;;7.20;2.28;;;;;;;;;;5011563;28;20210;-74
2022/06/28 00:57:05;;;;;;;8.23;3.33;;;;;;;;;;5012808;28;20182;-74
2022/06/28 00:59:30;;;;;;;5.73;2.20;;;;;;;;;;5011649;28;20211;-74
2022/06/28 01:01:57;;;;;;;6.17;2.47;;;;;;;;;;5004552;28;20182;-74
2022/06/28 01:04:22;;;;;;;7.35;2.53;;;;;;;;;;4999948;28;20252;-74
2022/06/28 01:06:47;;;;;;;6.83;2.97;;;;;;;;;;5011320;28;20203;-74
2022/06/28 01:09:12;;;;;;;4.57;2.70;;;;;;;;;;4993760;28;20183;-74
2022/06/28 01:11:38;;;;;;;6.57;2.43;;;;;;;;;;4992497;28;20585;-74
2022/06/28 01:14:06;;;;;;;6.40;2.80;;;;;;;;;;5010672;28;20231;-74
2022/06/28 01:16:31;;;;;;;9.07;2.80;;;;;;;;;;5004585;28;20186;-74
2022/06/28 01:18:57;;;;;;;7.77;2.83;;;;;;;;;;5002382;28;20188;-74
2022/06/28 01:21:24;;;;;;;5.93;3.00;;;;;;;;;;5009584;28;20233;-74
2022/06/28 01:23:49;;;;;;;5.37;3.63;;;;;;;;;;5000245;28;20206;-74
2022/06/28 01:26:17;;;;;;;9.30;3.30;;;;;;;;;;4992386;28;20218;-74
2022/06/28 01:28:43;;;;;;;10.73;3.53;;;;;;;;;;5002888;28;20286;-74
2022/06/28 01:31:09;;;;;;;6.40;3.33;;;;;;;;;;5010740;28;20645;-74
2022/06/28 01:33:36;;;;;;;6.83;2.60;;;;;;;;;;4997280;28;20203;-74
2022/06/28 01:36:02;;;;;;;8.50;2.80;;;;;;;;;;5007043;28;20575;-74
2022/06/28 01:38:28;;;;;;;4.40;2.70;;;;;;;;;;5002178;28;20179;-74
2022/06/28 01:40:53;;;;;;;12.27;3.60;;;;;;;;;;4983580;28;20183;-74
2022/06/28 01:43:19;;;;;;;8.37;2.10;;;;;;;;;;4992449;28;20211;-74
2022/06/28 01:45:44;;;;;;;6.67;2.40;;;;;;;;;;5003685;28;20298;-74
2022/06/28 01:48:10;;;;;;;5.93;2.13;;;;;;;;;;5003302;28;20186;-74
2022/06/28 01:50:35;;;;;;;6.70;2.10;;;;;;;;;;5007509;28;20560;-74
2022/06/28 01:53:00;;;;;;;4.68;2.40;;;;;;;;;;5007398;28;20302;-74
2022/06/28 01:55:25;;;;;;;3.63;2.10;;;;;;;;;;5008632;28;20163;-74
2022/06/28 01:57:50;;;;;;;9.83;2.67;;;;;;;;;;5008983;28;20547;-75
2022/06/28 02:00:16;;;;;;;8.73;2.80;;;;;;;;;;4994323;28;20179;-75
2022/06/28 02:02:41;;;;;;;6.67;2.53;;;;;;;;;;5009247;28;20329;-74
2022/06/28 02:05:07;;;;;;;5.45;1.80;;;;;;;;;;4990167;28;20231;-76
2022/06/28 02:07:32;;;;;;;7.27;1.83;;;;;;;;;;5009650;28;20194;-74
2022/06/28 02:09:57;;;;;;;3.90;1.70;;;;;;;;;;5001221;28;20179;-74
2022/06/28 02:12:23;;;;;;;4.20;1.50;;;;;;;;;;5010161;28;20594;-74
2022/06/28 02:14:48;;;;;;;4.53;1.90;;;;;;;;;;5008262;28;20174;-75
2022/06/28 02:17:13;;;;;;;4.37;1.60;;;;;;;;;;4990216;28;20197;-74
2022/06/28 02:19:38;;;;;;;6.67;2.10;;;;;;;;;;5004470;28;20286;-75
2022/06/28 02:22:03;;;;;;;5.77;2.37;;;;;;;;;;5005114;28;20190;-74
2022/06/28 02:24:29;;;;;;;5.70;1.70;;;;;;;;;;5004921;28;20181;-73
2022/06/28 02:26:54;;;;;;;4.90;2.70;;;;;;;;;;5007695;28;20515;-73
2022/06/28 02:29:19;;;;;;;7.73;1.90;;;;;;;;;;4988085;28;20254;-75
2022/06/28 02:31:45;;;;;;;5.80;3.63;;;;;;;;;;5009669;28;20183;-73
2022/06/28 02:40:21;;;;;;;9.57;2.37;;;;;;;;;;5003868;28;20345;-73
2022/06/28 02:42:23;;;;;;;7.10;2.23;;;;;;;;;;4995611;28;20213;-74
2022/06/28 02:44:48;;;;;;;6.83;2.00;;;;;;;;;;5006225;28;20175;-74
2022/06/28 02:47:13;;;;;;;7.97;1.93;;;;;;;;;;5009154;28;20197;-74
2022/06/28 02:49:38;;;;;;;6.33;2.53;;;;;;;;;;5007225;28;20179;-74
2022/06/28 02:52:04;;;;;;;4.87;2.30;;;;;;;;;;5005367;28;20640;-75
2022/06/28 02:54:29;;;;;;;6.50;2.17;;;;;;;;;;5012842;28;20485;-75
2022/06/28 02:56:54;;;;;;;8.13;2.93;;;;;;;;;;5008607;28;20641;-74
2022/06/28 02:59:19;;;;;;;7.40;2.20;;;;;;;;;;5001451;28;20222;-73
2022/06/28 03:01:44;;;;;;;6.27;2.30;;;;;;;;;;4986850;28;20172;-73
2022/06/28 03:04:10;;;;;;;4.57;2.13;;;;;;;;;;5009585;28;20195;-75
2022/06/28 03:06:35;;;;;;;9.07;2.50;;;;;;;;;;5009110;28;20624;-74
2022/06/28 03:09:00;;;;;;;7.07;2.80;;;;;;;;;;4985547;28;20191;-75
2022/06/28 03:11:25;;;;;;;5.47;2.63;;;;;;;;;;4982367;28;20184;-74
2022/06/28 03:13:50;;;;;;;5.47;2.70;;;;;;;;;;4995881;28;20190;-74
2022/06/28 03:16:16;;;;;;;8.43;2.80;;;;;;;;;;5008259;28;20270;-74
2022/06/28 03:18:41;;;;;;;7.63;2.40;;;;;;;;;;5001391;28;20279;-73
2022/06/28 03:21:06;;;;;;;4.20;2.50;;;;;;;;;;4999297;28;20616;-74
2022/06/28 03:23:31;;;;;;;4.00;2.60;;;;;;;;;;5002543;28;20253;-74
2022/06/28 03:25:56;;;;;;;10.30;2.17;;;;;;;;;;5008880;28;20203;-73
2022/06/28 03:28:22;;;;;;;5.40;2.47;;;;;;;;;;4991883;28;20176;-73
2022/06/28 03:30:47;;;;;;;8.63;2.80;;;;;;;;;;4976683;28;20177;-74
2022/06/28 03:33:12;;;;;;;6.47;2.43;;;;;;;;;;5002812;28;20709;-74
2022/06/28 03:35:37;;;;;;;6.07;2.33;;;;;;;;;;5008687;28;20191;-73
2022/06/28 03:38:02;;;;;;;4.33;2.07;;;;;;;;;;5011354;28;20189;-74
2022/06/28 03:40:28;;;;;;;5.03;2.23;;;;;;;;;;5009905;28;20262;-73
2022/06/28 03:42:53;;;;;;;4.50;2.17;;;;;;;;;;5010203;28;20202;-74
2022/06/28 03:45:18;;;;;;;5.60;3.20;;;;;;;;;;5011167;28;20688;-75
2022/06/28 03:47:43;;;;;;;4.37;2.73;;;;;;;;;;5012964;28;20236;-75
2022/06/28 03:50:09;;;;;;;5.60;3.30;;;;;;;;;;5005179;28;20175;-74
2022/06/28 03:52:34;;;;;;;4.67;2.27;;;;;;;;;;5007869;28;20238;-74
2022/06/28 03:54:59;;;;;;;7.13;2.23;;;;;;;;;;5008416;28;20261;-74
2022/06/28 03:57:25;;;;;;;7.93;2.73;;;;;;;;;;5005159;28;20187;-74
2022/06/28 03:59:50;;;;;;;4.50;2.40;;;;;;;;;;5010105;28;20233;-75
2022/06/28 04:02:16;;;;;;;4.67;2.13;;;;;;;;;;5013215;28;20657;-74
2022/06/28 04:04:41;;;;;;;6.90;2.40;;;;;;;;;;5012043;28;20189;-74
2022/06/28 04:07:06;;;;;;;7.57;3.00;;;;;;;;;;5006494;28;20289;-75
2022/06/28 04:09:31;;;;;;;7.27;2.63;;;;;;;;;;5001660;28;20171;-74
2022/06/28 04:11:56;;;;;;;8.23;2.90;;;;;;;;;;5002811;28;20233;-74
2022/06/28 04:14:22;;;;;;;10.97;2.57;;;;;;;;;;5009541;28;20232;-74
2022/06/28 04:16:47;;;;;;;6.50;2.47;;;;;;;;;;5013387;28;20479;-74
2022/06/28 04:19:12;;;;;;;6.17;2.20;;;;;;;;;;5015738;28;20613;-75
2022/06/28 04:21:37;;;;;;;10.53;3.57;;;;;;;;;;5009864;28;20680;-74
2022/06/28 04:24:02;;;;;;;7.77;2.40;;;;;;;;;;5007126;28;20190;-74
2022/06/28 04:26:28;;;;;;;9.00;2.73;;;;;;;;;;5011854;28;20249;-75
2022/06/28 04:28:53;;;;;;;6.75;2.40;;;;;;;;;;5000668;28;20183;-75
2022/06/28 04:31:18;;;;;;;7.57;3.28;;;;;;;;;;5008021;28;20279;-74
2022/06/28 04:33:43;;;;;;;6.03;2.30;;;;;;;;;;5018196;28;20202;-75
2022/06/28 04:36:09;;;;;;;7.63;2.70;;;;;;;;;;5013023;28;20182;-73
2022/06/28 04:38:34;;;;;;;7.50;2.30;;;;;;;;;;5006556;28;20175;-74
2022/06/28 04:40:59;;;;;;;5.30;1.90;;;;;;;;;;5016152;28;20190;-73
2022/06/28 04:43:25;;;;;;;7.03;1.95;;;;;;;;;;5013275;28;20195;-75
2022/06/28 04:45:50;;;;;;;5.45;2.25;;;;;;;;;;5008851;28;20210;-74
2022/06/28 04:48:15;;;;;;;4.68;1.90;;;;;;;;;;5002161;28;20187;-73
2022/06/28 04:50:40;;;;;;;5.82;1.65;;;;;;;;;;5007148;28;20215;-73
2022/06/28 04:53:05;;;;;;;5.07;1.80;;;;;;;;;;4999253;28;20213;-73
2022/06/28 04:55:31;;;;;;;6.45;2.58;;;;;;;;;;5012948;28;20523;-74
2022/06/28 04:57:56;;;;;;;7.80;2.25;;;;;;;;;;5006123;28;20629;-73
2022/06/28 05:00:21;;;;;;;8.55;2.40;;;;;;;;;;5006540;28;20187;-74
2022/06/28 05:02:46;;;;;;;3.13;1.75;;;;;;;;;;5009061;28;20205;-74
2022/06/28 05:05:12;;;;;;;5.93;1.80;;;;;;;;;;5011162;28;20610;-73
2022/06/28 05:07:37;;;;;;;4.95;1.90;;;;;;;;;;5008416;28;20199;-73
2022/06/28 05:10:03;;;;;;;5.55;1.90;;;;;;;;;;4997525;28;20666;-73
2022/06/28 05:12:28;;;;;;;10.10;2.95;;;;;;;;;;4978461;28;20206;-73
2022/06/28 05:14:53;;;;;;;8.75;2.47;;;;;;;;;;4992475;28;20194;-73
2022/06/28 05:17:19;;;;;;;4.88;2.22;;;;;;;;;;4987631;28;20266;-75
2022/06/28 05:19:44;;;;;;;8.38;2.80;;;;;;;;;;4986213;28;20186;-75
2022/06/28 05:22:09;;;;;;;7.80;2.40;;;;;;;;;;4985999;28;20258;-73
2022/06/28 05:24:35;;;;;;;8.20;2.47;;;;;;;;;;4987669;28;20179;-73
2022/06/28 05:27:00;;;;;;;9.13;3.20;;;;;;;;;;4984987;28;20237;-75
2022/06/28 05:29:25;;;;;;;8.25;2.42;;;;;;;;;;4983939;28;20265;-74
2022/06/28 05:31:50;;;;;;;9.73;2.33;;;;;;;;;;4984298;28;20665;-73
2022/06/28 05:34:16;;;;;;;8.65;2.90;;;;;;;;;;5001524;28;20277;-74
2022/06/28 05:36:41;;;;;;;14.93;3.30;;;;;;;;;;4986341;28;20225;-74
2022/06/28 05:39:07;;;;;;;10.90;3.10;;;;;;;;;;4985937;28;20187;-74
2022/06/28 05:41:32;;;;;;;8.48;2.45;;;;;;;;;;4971615;28;20191;-73
2022/06/28 05:43:58;;;;;;;7.78;3.00;;;;;;;;;;4989807;28;20202;-75
2022/06/28 05:46:23;;;;;;;10.82;2.88;;;;;;;;;;4988265;28;20203;-74
2022/06/28 05:48:48;;;;;;;9.43;3.30;;;;;;;;;;4982977;28;20275;-73
2022/06/28 05:51:14;;;;;;;8.05;2.72;;;;;;;;;;4986900;28;20402;-73
2022/06/28 05:53:39;;;;;;;8.63;2.88;;;;;;;;;;4991028;28;20225;-73
2022/06/28 05:56:04;;;;;;;10.18;3.30;;;;;;;;;;4970205;28;20187;-74
2022/06/28 05:58:29;;;;;;;9.35;2.83;;;;;;;;;;4981626;28;20213;-73
2022/06/28 06:00:54;;;;;;;11.93;3.72;;;;;;;;;;4986567;28;20187;-73
2022/06/28 06:03:20;;;;;;;11.95;3.47;;;;;;;;;;4986424;28;20213;-73
2022/06/28 06:05:45;;;;;;;8.50;2.92;;;;;;;;;;4971165;28;20217;-73
2022/06/28 06:08:10;;;;;;;12.73;3.92;;;;;;;;;;4983770;28;20254;-73
2022/06/28 06:10:35;;;;;;;9.32;3.40;;;;;;;;;;4991113;28;20645;-73
2022/06/28 06:13:02;;;;;;;10.95;3.00;;;;;;;;;;4985534;28;20195;-73
2022/06/28 06:15:27;;;;;;;13.20;3.67;;;;;;;;;;4974966;28;20172;-73
2022/06/28 06:17:52;;;;;;;15.60;3.60;;;;;;;;;;4987630;28;20201;-74
2022/06/28 06:20:18;;;;;;;11.35;3.13;;;;;;;;;;4991014;28;20179;-74
2022/06/28 06:22:43;;;;;;;12.90;3.20;;;;;;;;;;4983405;28;20306;-72
2022/06/28 06:25:08;;;;;;;9.05;3.30;;;;;;;;;;4986530;28;20271;-74
2022/06/28 06:27:33;;;;;;;8.10;2.90;;;;;;;;;;4986774;28;20210;-74
2022/06/28 06:29:59;;;;;;;9.13;3.65;;;;;;;;;;5001873;28;20225;-74
2022/06/28 06:32:24;;;;;;;10.05;3.35;;;;;;;;;;5008528;28;20273;-73
2022/06/28 06:34:49;;;;;;;15.48;3.40;;;;;;;;;;5009573;28;20190;-73
2022/06/28 06:37:14;;;;;;;12.23;3.13;;;;;;;;;;5004879;28;20182;-73
2022/06/28 06:39:39;;;;;;;8.13;2.88;;;;;;;;;;5009581;28;20596;-74
2022/06/28 06:42:05;;;;;;;12.95;3.38;;;;;;;;;;5010674;28;20171;-72
2022/06/28 06:44:30;;;;;;;9.50;2.85;;;;;;;;;;4993825;28;20175;-72
2022/06/28 06:46:56;;;;;;;14.20;3.75;;;;;;;;;;5011400;28;20207;-72
2022/06/28 06:49:21;;;;;;;11.93;4.13;;;;;;;;;;5010803;28;20209;-73
2022/06/28 06:51:48;;;;;;;14.77;3.20;;;;;;;;;;5016680;28;20306;-72
2022/06/28 06:54:14;;;;;;;12.45;2.90;;;;;;;;;;5012883;28;20310;-72
2022/06/28 06:56:40;;;;;;;8.63;3.47;;;;;;;;;;5011061;28;20237;-72
2022/06/28 06:59:07;;;;;;;10.73;3.58;;;;;;;;;;4996849;28;20182;-71
2022/06/28 07:01:33;;;;;;;10.60;3.97;;;;;;;;;;4990606;28;20178;-72
2022/06/28 07:03:58;;;;;;;18.73;3.65;;;;;;;;;;5009680;28;20274;-72
2022/06/28 07:06:24;;;;;;;9.52;3.00;;;;;;;;;;4985952;28;20217;-72
2022/06/28 07:08:49;;;;;;;8.45;3.22;;;;;;;;;;5002437;28;20218;-71
2022/06/28 07:11:14;;;;;;;10.33;2.83;;;;;;;;;;4989830;28;20202;-72
2022/06/28 07:13:39;;;;;;;12.85;3.65;;;;;;;;;;5006501;28;20450;-72
2022/06/28 07:16:05;;;;;;;9.60;3.05;;;;;;;;;;4997169;28;20194;-72
2022/06/28 07:18:30;;;;;;;14.02;3.10;;;;;;;;;;4993710;28;20179;-72
2022/06/28 07:20:55;;;;;;;12.55;3.03;;;;;;;;;;5010460;28;20569;-72
2022/06/28 07:23:21;;;;;;;10.93;3.30;;;;;;;;;;5008753;28;20202;-72
2022/06/28 07:25:46;;;;;;;14.70;3.97;;;;;;;;;;4994709;28;20199;-72
2022/06/28 07:28:11;;;;;;;8.05;2.75;;;;;;;;;;5004000;28;20179;-72
2022/06/28 07:30:37;;;;;;;11.20;3.83;;;;;;;;;;5012272;28;20534;-72
2022/06/28 07:33:02;;;;;;;8.48;3.45;;;;;;;;;;5010197;28;20289;-72
2022/06/28 07:35:27;;;;;;;13.90;2.95;;;;;;;;;;5010155;28;20742;-72
2022/06/28 07:37:53;;;;;;;11.85;3.15;;;;;;;;;;5010918;28;20183;-72
2022/06/28 07:40:18;;;;;;;10.85;3.08;;;;;;;;;;5012898;28;20171;-72
2022/06/28 07:42:43;;;;;;;7.82;2.47;;;;;;;;;;5015344;28;20206;-72
2022/06/28 07:45:09;;;;;;;8.05;2.78;;;;;;;;;;4999515;28;20679;-72
2022/06/28 07:47:34;;;;;;;13.75;3.15;;;;;;;;;;5001767;28;20222;-71
2022/06/28 07:52:43;;;;;;;9.68;2.78;;;;;;;;;;4991244;28;20356;-72
2022/06/28 07:55:09;;;;;;;14.60;3.07;;;;;;;;;;4972838;28;20214;-73
2022/06/28 07:57:34;;;;;;;10.07;2.17;;;;;;;;;;4987543;28;20435;-73
2022/06/28 07:59:59;;;;;;;8.77;2.42;;;;;;;;;;4990532;28;20175;-72
2022/06/28 08:02:25;;;;;;;8.18;2.80;;;;;;;;;;4987658;28;20198;-72
2022/06/28 08:04:50;;;;;;;16.27;2.90;;;;;;;;;;4989783;28;20540;-73
2022/06/28 08:07:15;;;;;;;7.55;2.13;;;;;;;;;;4991254;28;20695;-72
2022/06/28 08:09:41;;;;;;;7.67;2.63;;;;;;;;;;5014842;28;20673;-73
2022/06/28 08:12:06;;;;;;;7.88;1.90;;;;;;;;;;5014949;28;20416;-73
2022/06/28 08:14:32;;;;;;;7.03;2.15;;;;;;;;;;5014526;28;20229;-73
2022/06/28 08:16:57;;;;;;;10.15;2.67;;;;;;;;;;5013793;28;20167;-72
2022/06/28 08:19:23;;;;;;;8.27;3.45;;;;;;;;;;5008752;28;20198;-72
2022/06/28 08:21:49;;;;;;;11.15;2.60;;;;;;;;;;5012640;28;20218;-73
2022/06/28 08:24:14;;;;;;;8.63;1.95;;;;;;;;;;4973262;28;20571;-72
2022/06/28 08:26:42;;;;;;;12.77;2.80;;;;;;;;;;4990110;28;20662;-72
2022/06/28 08:29:14;;;;;;;10.07;2.97;;;;;;;;;;4995819;28;20171;-73
2022/06/28 08:31:40;;;;;;;9.65;2.78;;;;;;;;;;5008911;28;20270;-73
2022/06/28 08:34:05;;;;;;;6.13;2.47;;;;;;;;;;5011028;28;20274;-72
2022/06/28 08:36:30;;;;;;;6.07;2.03;;;;;;;;;;5012468;28;20171;-72
2022/06/28 08:38:56;;;;;;;7.93;2.00;;;;;;;;;;5013110;28;20183;-72
2022/06/28 08:41:22;;;;;;;6.95;1.98;;;;;;;;;;5006299;28;20179;-73
2022/06/28 08:43:47;;;;;;;11.57;2.35;;;;;;;;;;5007658;28;20195;-72
2022/06/28 08:46:13;;;;;;;8.68;2.00;;;;;;;;;;5009334;28;20344;-72
2022/06/28 08:48:41;;;;;;;7.05;2.13;;;;;;;;;;5009639;28;20166;-72
2022/06/28 08:51:07;;;;;;;8.32;2.33;;;;;;;;;;5010112;28;20186;-73
2022/06/28 08:53:33;;;;;;;9.57;3.05;;;;;;;;;;5014103;28;20198;-72
2022/06/28 08:55:59;;;;;;;9.70;2.47;;;;;;;;;;5013124;28;20221;-73
2022/06/28 08:58:25;;;;;;;8.18;2.40;;;;;;;;;;4994564;28;20182;-72
2022/06/28 09:00:50;;;;;;;8.43;2.38;;;;;;;;;;5012572;28;20179;-73
2022/06/28 09:03:16;;;;;;;7.18;1.98;;;;;;;;;;5013692;28;20201;-73
2022/06/28 09:05:41;;;;;;;6.60;1.83;;;;;;;;;;5002728;28;20193;-73
2022/06/28 09:08:07;;;;;;;7.35;2.47;;;;;;;;;;4987949;28;20564;-72
2022/06/28 09:10:32;;;;;;;7.80;2.55;;;;;;;;;;4987522;28;20186;-73
2022/06/28 09:13:23;;;;;;;8.45;2.17;;;;;;;;;;4986027;28;20285;-73
2022/06/28 09:15:50;;;;;;;5.85;1.52;;;;;;;;;;4986351;28;20206;-72
2022/06/28 09:18:17;;;;;;;7.15;2.03;;;;;;;;;;4986980;28;20199;-72
2022/06/28 09:20:43;;;;;;;8.70;2.67;;;;;;;;;;4988860;28;20187;-73
2022/06/28 09:23:28;;;;;;;5.32;2.20;;;;;;;;;;4987137;28;20198;-72
2022/06/28 09:25:56;;;;;;;6.63;1.80;;;;;;;;;;4986946;28;20212;-72
2022/06/28 09:28:22;;;;;;;8.23;1.95;;;;;;;;;;4965602;28;20197;-72
2022/06/28 09:30:48;;;;;;;4.82;1.50;;;;;;;;;;4997352;28;20186;-72
2022/06/28 09:33:33;;;;;;;7.28;2.15;;;;;;;;;;4989207;28;20604;-72
2022/06/28 09:35:59;;;;;;;6.28;1.60;;;;;;;;;;4989089;28;20200;-72
2022/06/28 09:38:30;;;;;;;5.30;1.33;;;;;;;;;;4986380;28;20194;-72
2022/06/28 09:40:55;;;;;;;5.40;1.40;;;;;;;;;;4986847;28;20205;-72
2022/06/28 09:43:20;;;;;;;6.00;1.35;;;;;;;;;;4985901;28;20294;-73
2022/06/28 09:45:50;;;;;;;5.03;1.30;;;;;;;;;;4989390;28;20565;-73
2022/06/28 09:48:16;;;;;;;4.10;1.15;;;;;;;;;;4991022;28;20175;-72
2022/06/28 09:50:42;;;;;;;4.63;1.23;;;;;;;;;;4985726;28;20188;-72
2022/06/28 09:53:07;;;;;;;5.43;1.00;;;;;;;;;;4986841;28;20244;-72
2022/06/28 09:55:33;;;;;;;2.70;0.77;;;;;;;;;;4986242;28;20858;-72
2022/06/28 09:57:59;;;;;;;7.45;1.58;;;;;;;;;;4985914;28;20203;-72
2022/06/28 10:00:25;;;;;;;4.97;1.00;;;;;;;;;;4989177;28;20187;-72
2022/06/28 10:02:51;;;;;;;4.72;1.33;;;;;;;;;;4989519;28;20248;-72
2022/06/28 10:05:17;;;;;;;4.95;1.33;;;;;;;;;;4988093;28;20186;-72
2022/06/28 10:07:42;;;;;;;3.75;1.08;;;;;;;;;;4985980;28;20263;-72
2022/06/28 10:10:08;;;;;;;4.63;1.65;;;;;;;;;;5000134;28;20633;-72
2022/06/28 10:15:18;;;;;;;4.55;1.17;;;;;;;;;;4993430;28;20322;-72
2022/06/28 10:17:46;;;;;;;5.07;1.15;;;;;;;;;;4984979;28;20186;-72
2022/06/28 10:20:15;;;;;;;3.92;0.90;;;;;;;;;;4986065;28;20193;-72
2022/06/28 10:22:40;;;;;;;3.55;1.00;;;;;;;;;;4983728;28;20688;-72
2022/06/28 10:25:15;;;;;;;3.87;1.23;;;;;;;;;;4984874;28;20190;-72
2022/06/28 10:27:47;;;;;;;3.53;1.13;;;;;;;;;;4985700;28;20460;-72
2022/06/28 10:30:21;;;;;;;2.08;0.95;;;;;;;;;;4979419;28;20183;-72
2022/06/28 10:32:48;;;;;;;4.30;1.08;;;;;;;;;;4984205;28;20581;-73
2022/06/28 10:35:28;;;;;;;3.50;0.80;;;;;;;;;;5012707;28;20179;-72
2022/06/28 10:38:23;;;;;;;4.03;1.33;;;;;;;;;;5009681;28;20723;-73
2022/06/28 10:40:49;;;;;;;7.10;1.13;;;;;;;;;;4989238;28;20199;-72
2022/06/28 10:43:34;;;;;;;3.95;1.17;;;;;;;;;;5016152;28;20232;-72
2022/06/28 10:45:59;;;;;;;2.53;0.63;;;;;;;;;;5006577;28;20309;-72
2022/06/28 10:48:25;;;;;;;4.07;0.83;;;;;;;;;;5015707;28;20265;-73
2022/06/28 10:50:56;;;;;;;4.90;0.93;;;;;;;;;;5015986;28;20171;-72
2022/06/28 10:53:22;;;;;;;3.45;0.68;;;;;;;;;;4998302;28;20206;-72
2022/06/28 10:56:06;;;;;;;2.40;0.70;;;;;;;;;;5015520;28;20185;-72
2022/06/28 10:58:31;;;;;;;3.63;0.80;;;;;;;;;;5013165;28;20186;-73
2022/06/28 11:00:56;;;;;;;1.93;0.70;;;;;;;;;;5014568;28;20575;-72
2022/06/28 11:03:22;;;;;;;3.67;0.73;;;;;;;;;;5022507;28;20440;-72
2022/06/28 11:05:54;;;;;;;1.58;0.52;;;;;;;;;;4998790;28;20531;-72
2022/06/28 11:08:49;;;;;;;3.28;0.60;;;;;;;;;;4999041;28;21199;-72
2022/06/28 11:11:14;;;;;;;2.35;0.75;;;;;;;;;;4978158;28;20195;-72
2022/06/28 11:13:39;;;;;;;2.28;0.90;;;;;;;;;;4992437;28;20256;-72
2022/06/28 11:16:04;;;;;;;6.75;1.17;;;;;;;;;;4997656;28;20190;-72
2022/06/28 11:18:30;;;;;;;2.27;0.70;;;;;;;;;;5016487;28;20267;-72
2022/06/28 11:20:56;;;;;;;3.20;0.90;;;;;;;;;;5001578;28;20442;-73
2022/06/28 11:23:23;;;;;;;4.25;1.05;;;;;;;;;;4994817;28;20972;-73
2022/06/28 11:28:51;;;;;;;3.42;0.65;;;;;;;;;;4995103;28;20201;-73
2022/06/28 11:31:16;;;;;;;2.30;0.90;;;;;;;;;;4993841;28;20192;-72
2022/06/28 11:33:41;;;;;;;2.05;0.80;;;;;;;;;;4995041;28;20203;-72
2022/06/28 11:36:06;;;;;;;3.30;1.13;;;;;;;;;;4992695;28;20191;-72
2022/06/28 11:38:32;;;;;;;4.23;1.60;;;;;;;;;;4992770;28;20249;-72
2022/06/28 11:40:57;;;;;;;4.00;1.30;;;;;;;;;;4992977;28;20703;-72
2022/06/28 11:43:25;;;;;;;2.65;0.80;;;;;;;;;;4990522;28;20546;-72
2022/06/28 11:45:50;;;;;;;4.38;1.15;;;;;;;;;;4995951;28;20187;-72
2022/06/28 11:48:17;;;;;;;4.53;0.90;;;;;;;;;;4993272;28;20178;-72
2022/06/28 11:50:53;;;;;;;3.85;1.02;;;;;;;;;;4987775;28;20188;-72
2022/06/28 11:53:19;;;;;;;2.67;0.93;;;;;;;;;;4993935;28;20551;-72
2022/06/28 11:55:54;;;;;;;3.53;1.13;;;;;;;;;;4992423;28;20175;-72
2022/06/28 11:58:20;;;;;;;3.60;0.95;;;;;;;;;;4989142;28;20202;-72
2022/06/28 12:01:04;;;;;;;5.35;1.33;;;;;;;;;;4975541;28;20689;-72
2022/06/28 12:03:30;;;;;;;2.03;0.50;;;;;;;;;;4989393;28;20282;-73
2022/06/28 12:06:00;;;;;;;4.53;0.90;;;;;;;;;;4971781;28;20202;-72
2022/06/28 12:08:44;;;;;;;3.30;0.80;;;;;;;;;;4986202;28;20250;-71
2022/06/28 12:11:32;;;;;;;2.83;0.73;;;;;;;;;;4974683;28;20270;-72
2022/06/28 12:14:03;;;;;;;5.47;0.73;;;;;;;;;;4991055;28;20203;-71
2022/06/28 12:16:33;;;;;;;4.68;1.05;;;;;;;;;;4980393;28;20528;-72
2022/06/28 12:18:59;;;;;;;2.60;0.93;;;;;;;;;;4993950;28;20738;-72
2022/06/28 12:21:25;;;;;;;3.65;1.45;;;;;;;;;;4972053;28;20188;-72
2022/06/28 12:23:51;;;;;;;6.70;1.15;;;;;;;;;;4988660;28;20206;-72
2022/06/28 12:26:16;;;;;;;2.22;0.52;;;;;;;;;;4991414;28;20206;-72
2022/06/28 12:28:42;;;;;;;5.20;0.93;;;;;;;;;;4974867;28;20670;-73
2022/06/28 12:31:07;;;;;;;1.75;0.75;;;;;;;;;;5002720;28;20191;-73
2022/06/28 12:33:32;;;;;;;2.57;1.30;;;;;;;;;;5011230;28;20214;-72
2022/06/28 12:35:57;;;;;;;4.37;1.10;;;;;;;;;;5012777;28;20420;-72
2022/06/28 12:38:23;;;;;;;2.90;0.90;;;;;;;;;;5012228;28;20936;-72
2022/06/28 12:40:48;;;;;;;5.93;1.20;;;;;;;;;;4995508;28;20463;-72
2022/06/28 12:43:13;;;;;;;5.60;1.00;;;;;;;;;;5010495;28;20195;-72
2022/06/28 12:45:38;;;;;;;4.67;1.00;;;;;;;;;;5009160;28;20502;-73
2022/06/28 12:48:04;;;;;;;4.38;1.10;;;;;;;;;;5012135;28;20523;-72
2022/06/28 12:50:29;;;;;;;3.55;1.15;;;;;;;;;;5017188;28;20179;-72
2022/06/28 12:52:54;;;;;;;4.87;1.50;;;;;;;;;;5018644;28;20211;-73
2022/06/28 12:55:20;;;;;;;5.03;1.30;;;;;;;;;;5021288;28;20405;-72
2022/06/28 12:57:45;;;;;;;4.63;1.40;;;;;;;;;;5011086;28;21121;-71
2022/06/28 13:00:11;;;;;;;3.78;0.90;;;;;;;;;;5002668;28;20926;-71
2022/06/28 13:02:37;;;;;;;3.05;0.80;;;;;;;;;;4990805;28;20203;-72
2022/06/28 13:05:02;;;;;;;3.55;1.40;;;;;;;;;;4985332;28;20186;-71
2022/06/28 13:07:28;;;;;;;3.72;1.35;;;;;;;;;;4988753;28;20798;-71
2022/06/28 13:09:53;;;;;;;4.97;1.20;;;;;;;;;;4986753;28;20195;-72
2022/06/28 13:12:18;;;;;;;2.50;0.90;;;;;;;;;;4987741;28;20444;-71
2022/06/28 13:14:43;;;;;;;6.30;1.40;;;;;;;;;;4996050;28;20187;-72
2022/06/28 13:17:09;;;;;;;5.95;1.35;;;;;;;;;;4987400;28;20435;-71
2022/06/28 13:19:34;;;;;;;3.67;1.43;;;;;;;;;;4989037;28;20776;-71
2022/06/28 13:21:59;;;;;;;4.17;1.20;;;;;;;;;;4985082;28;20187;-72
2022/06/28 13:24:24;;;;;;;3.67;1.33;;;;;;;;;;4989400;28;20435;-71
2022/06/28 13:26:49;;;;;;;6.20;2.33;;;;;;;;;;4990191;28;20246;-71
2022/06/28 13:29:15;;;;;;;4.80;1.48;;;;;;;;;;4986509;28;20428;-71
2022/06/28 13:31:40;;;;;;;3.83;1.50;;;;;;;;;;4987896;28;20317;-71
2022/06/28 13:34:05;;;;;;;3.60;1.50;;;;;;;;;;4971568;28;20969;-71
2022/06/28 13:36:31;;;;;;;5.07;2.13;;;;;;;;;;4987771;28;20429;-71
2022/06/28 13:38:57;;;;;;;4.18;1.55;;;;;;;;;;4986602;28;20179;-71
2022/06/28 13:41:22;;;;;;;5.72;1.70;;;;;;;;;;4987303;28;20184;-71
2022/06/28 13:43:47;;;;;;;4.33;1.70;;;;;;;;;;4990550;28;20747;-72
2022/06/28 13:46:15;;;;;;;5.70;1.67;;;;;;;;;;5003597;28;20206;-72
2022/06/28 13:48:40;;;;;;;4.95;1.63;;;;;;;;;;4992110;28;20194;-71
2022/06/28 13:51:06;;;;;;;3.30;1.50;;;;;;;;;;4987051;28;20792;-72
2022/06/28 13:53:31;;;;;;;4.40;1.25;;;;;;;;;;4990591;28;20218;-72
2022/06/28 13:55:57;;;;;;;4.22;1.15;;;;;;;;;;4970698;28;20559;-71
2022/06/28 13:58:22;;;;;;;4.03;1.77;;;;;;;;;;4990983;28;21452;-72
2022/06/28 14:00:48;;;;;;;3.38;2.08;;;;;;;;;;4969636;28;20361;-72
2022/06/28 14:03:14;;;;;;;3.20;1.63;;;;;;;;;;4969944;28;20704;-72
2022/06/28 14:05:39;;;;;;;4.53;1.60;;;;;;;;;;4985758;28;20194;-72
2022/06/28 14:08:05;;;;;;;4.25;1.45;;;;;;;;;;4984387;28;21270;-72
2022/06/28 14:10:32;;;;;;;3.50;1.65;;;;;;;;;;4986985;28;20199;-72
2022/06/28 14:12:57;;;;;;;3.42;1.00;;;;;;;;;;4985619;28;20206;-71
2022/06/28 14:15:23;;;;;;;3.50;1.20;;;;;;;;;;4993885;28;20695;-71
2022/06/28 14:17:48;;;;;;;4.70;1.92;;;;;;;;;;4985537;28;20222;-71
2022/06/28 14:20:13;;;;;;;4.57;1.40;;;;;;;;;;4985668;28;20568;-71
2022/06/28 14:22:38;;;;;;;3.40;1.30;;;;;;;;;;4985472;28;20931;-71
2022/06/28 14:25:04;;;;;;;4.30;0.98;;;;;;;;;;4987538;28;20202;-71
2022/06/28 14:27:29;;;;;;;2.17;1.00;;;;;;;;;;4995101;28;20216;-71
2022/06/28 14:29:54;;;;;;;2.03;0.80;;;;;;;;;;5006642;28;20171;-72
2022/06/28 14:32:19;;;;;;;4.40;1.40;;;;;;;;;;5008140;28;20288;-72
2022/06/28 14:34:44;;;;;;;2.07;0.70;;;;;;;;;;5010799;28;20178;-71
2022/06/28 14:37:10;;;;;;;2.10;1.07;;;;;;;;;;5008332;28;20440;-71
2022/06/28 14:39:35;;;;;;;4.57;1.45;;;;;;;;;;5009535;28;20412;-72
2022/06/28 14:42:00;;;;;;;4.53;1.30;;;;;;;;;;5009017;28;20233;-71
2022/06/28 14:44:25;;;;;;;3.63;1.10;;;;;;;;;;5007654;28;20653;-72
2022/06/28 14:46:52;;;;;;;3.70;1.13;;;;;;;;;;5008494;28;21023;-72
2022/06/28 14:49:17;;;;;;;3.92;1.10;;;;;;;;;;5007541;28;20431;-72
2022/06/28 14:51:42;;;;;;;3.87;1.13;;;;;;;;;;5012025;28;20178;-72